< < Back
Terminal Aerodrome Forecast


Current Version              Previous Versions:   1  2  3  4  5  6  7  8  9  

Terminal Aerodrome Forecast

542
FTUS42 KTAE 271120
TAFABY
TAF
KABY 271120Z 2712/2812 00000KT P6SM SCT250
     FM271500 24008KT P6SM FEW050 SCT250
     FM280100 VRB03KT P6SM SCT250=

Latest METAR

220
SAUS70 KWBC 271900 RRL
MTRABY
METAR KABY 271853Z 25008KT 10SM BKN047 BKN060 BKN080 33/21 A3007 RMK AO2
SLP181 T03330211


USA.gov is the U.S. government's official web portal to all federal, state and local government web resources and services.